sensor_id;sensor_type;location;lat;lon;timestamp;temperature;humidity
9116;DHT22;4593;53.652;10.168;2023-11-21T00:01:58;8.10;100.00
9116;DHT22;4593;53.652;10.168;2023-11-21T00:04:24;7.90;100.00
9116;DHT22;4593;53.652;10.168;2023-11-21T00:06:50;7.90;100.00
9116;DHT22;4593;53.652;10.168;2023-11-21T00:09:16;7.90;100.00
9116;DHT22;4593;53.652;10.168;2023-11-21T00:11:43;7.80;100.00
9116;DHT22;4593;53.652;10.168;2023-11-21T00:14:10;7.80;100.00
9116;DHT22;4593;53.652;10.168;2023-11-21T00:16:36;7.70;100.00
9116;DHT22;4593;53.652;10.168;2023-11-21T00:19:01;7.70;100.00
9116;DHT22;4593;53.652;10.168;2023-11-21T00:21:27;7.80;100.00
9116;DHT22;4593;53.652;10.168;2023-11-21T00:23:53;7.80;100.00
9116;DHT22;4593;53.652;10.168;2023-11-21T00:26:18;7.90;100.00
9116;DHT22;4593;53.652;10.168;2023-11-21T00:28:44;7.90;100.00
9116;DHT22;4593;53.652;10.168;2023-11-21T00:31:10;7.80;100.00
9116;DHT22;4593;53.652;10.168;2023-11-21T00:33:36;7.70;100.00
9116;DHT22;4593;53.652;10.168;2023-11-21T00:36:02;7.60;100.00
9116;DHT22;4593;53.652;10.168;2023-11-21T00:38:27;7.50;100.00
9116;DHT22;4593;53.652;10.168;2023-11-21T00:40:53;7.40;100.00
9116;DHT22;4593;53.652;10.168;2023-11-21T00:43:22;7.40;100.00
9116;DHT22;4593;53.652;10.168;2023-11-21T00:45:48;7.30;100.00
9116;DHT22;4593;53.652;10.168;2023-11-21T00:48:17;7.40;100.00
9116;DHT22;4593;53.652;10.168;2023-11-21T00:50:44;7.50;100.00
9116;DHT22;4593;53.652;10.168;2023-11-21T00:53:09;7.50;100.00
9116;DHT22;4593;53.652;10.168;2023-11-21T00:55:36;7.60;100.00
9116;DHT22;4593;53.652;10.168;2023-11-21T00:58:02;7.60;100.00
9116;DHT22;4593;53.652;10.168;2023-11-21T01:00:29;7.70;100.00
9116;DHT22;4593;53.652;10.168;2023-11-21T01:02:55;7.70;100.00
9116;DHT22;4593;53.652;10.168;2023-11-21T01:05:21;7.50;100.00
9116;DHT22;4593;53.652;10.168;2023-11-21T01:07:47;7.40;100.00
9116;DHT22;4593;53.652;10.168;2023-11-21T01:10:12;7.30;100.00
9116;DHT22;4593;53.652;10.168;2023-11-21T01:12:38;7.20;100.00
9116;DHT22;4593;53.652;10.168;2023-11-21T01:15:07;7.10;100.00
9116;DHT22;4593;53.652;10.168;2023-11-21T01:17:33;7.20;100.00
9116;DHT22;4593;53.652;10.168;2023-11-21T01:20:00;7.20;100.00
9116;DHT22;4593;53.652;10.168;2023-11-21T01:22:25;7.10;100.00
9116;DHT22;4593;53.652;10.168;2023-11-21T01:24:54;7.20;100.00
9116;DHT22;4593;53.652;10.168;2023-11-21T01:27:20;7.10;100.00
9116;DHT22;4593;53.652;10.168;2023-11-21T01:29:46;7.10;100.00
9116;DHT22;4593;53.652;10.168;2023-11-21T01:32:11;7.20;100.00
9116;DHT22;4593;53.652;10.168;2023-11-21T01:34:37;7.10;100.00
9116;DHT22;4593;53.652;10.168;2023-11-21T01:37:03;7.10;100.00
9116;DHT22;4593;53.652;10.168;2023-11-21T01:39:31;7.10;100.00
9116;DHT22;4593;53.652;10.168;2023-11-21T01:41:57;6.90;100.00
9116;DHT22;4593;53.652;10.168;2023-11-21T01:44:24;7.00;100.00
9116;DHT22;4593;53.652;10.168;2023-11-21T01:46:50;7.00;100.00
9116;DHT22;4593;53.652;10.168;2023-11-21T01:49:17;7.00;100.00
9116;DHT22;4593;53.652;10.168;2023-11-21T01:51:46;7.10;100.00
9116;DHT22;4593;53.652;10.168;2023-11-21T01:54:15;7.10;100.00
9116;DHT22;4593;53.652;10.168;2023-11-21T01:56:40;7.10;100.00
9116;DHT22;4593;53.652;10.168;2023-11-21T01:59:06;7.10;100.00
9116;DHT22;4593;53.652;10.168;2023-11-21T02:01:33;7.00;100.00
9116;DHT22;4593;53.652;10.168;2023-11-21T02:03:59;7.00;100.00
9116;DHT22;4593;53.652;10.168;2023-11-21T02:06:25;6.90;100.00
9116;DHT22;4593;53.652;10.168;2023-11-21T02:08:51;7.00;100.00
9116;DHT22;4593;53.652;10.168;2023-11-21T02:11:17;7.00;100.00
9116;DHT22;4593;53.652;10.168;2023-11-21T02:13:44;7.00;100.00
9116;DHT22;4593;53.652;10.168;2023-11-21T02:16:11;6.90;100.00
9116;DHT22;4593;53.652;10.168;2023-11-21T02:18:38;6.90;100.00
9116;DHT22;4593;53.652;10.168;2023-11-21T02:21:05;6.90;100.00
9116;DHT22;4593;53.652;10.168;2023-11-21T02:23:30;6.90;100.00
9116;DHT22;4593;53.652;10.168;2023-11-21T02:25:56;6.90;100.00
9116;DHT22;4593;53.652;10.168;2023-11-21T02:28:22;7.00;100.00
9116;DHT22;4593;53.652;10.168;2023-11-21T02:30:52;7.00;100.00
9116;DHT22;4593;53.652;10.168;2023-11-21T02:33:24;6.90;100.00
9116;DHT22;4593;53.652;10.168;2023-11-21T02:35:50;6.90;100.00
9116;DHT22;4593;53.652;10.168;2023-11-21T02:38:20;6.90;100.00
9116;DHT22;4593;53.652;10.168;2023-11-21T02:40:46;6.90;100.00
9116;DHT22;4593;53.652;10.168;2023-11-21T02:43:12;6.80;100.00
9116;DHT22;4593;53.652;10.168;2023-11-21T02:45:37;6.80;100.00
9116;DHT22;4593;53.652;10.168;2023-11-21T02:48:03;6.80;100.00
9116;DHT22;4593;53.652;10.168;2023-11-21T02:50:29;6.70;100.00
9116;DHT22;4593;53.652;10.168;2023-11-21T02:52:55;6.70;100.00
9116;DHT22;4593;53.652;10.168;2023-11-21T02:55:23;6.70;100.00
9116;DHT22;4593;53.652;10.168;2023-11-21T02:57:50;6.70;100.00
9116;DHT22;4593;53.652;10.168;2023-11-21T03:00:16;6.60;100.00
9116;DHT22;4593;53.652;10.168;2023-11-21T03:02:42;6.60;100.00
9116;DHT22;4593;53.652;10.168;2023-11-21T03:05:09;6.60;100.00
9116;DHT22;4593;53.652;10.168;2023-11-21T03:07:38;6.60;100.00
9116;DHT22;4593;53.652;10.168;2023-11-21T03:10:04;6.60;100.00
9116;DHT22;4593;53.652;10.168;2023-11-21T03:12:30;6.60;100.00
9116;DHT22;4593;53.652;10.168;2023-11-21T03:14:56;6.60;100.00
9116;DHT22;4593;53.652;10.168;2023-11-21T03:17:21;6.70;100.00
9116;DHT22;4593;53.652;10.168;2023-11-21T03:19:47;6.60;100.00
9116;DHT22;4593;53.652;10.168;2023-11-21T03:22:12;6.60;100.00
9116;DHT22;4593;53.652;10.168;2023-11-21T03:24:38;6.70;100.00
9116;DHT22;4593;53.652;10.168;2023-11-21T03:27:04;6.70;100.00
9116;DHT22;4593;53.652;10.168;2023-11-21T03:29:30;6.60;100.00
9116;DHT22;4593;53.652;10.168;2023-11-21T03:31:56;6.60;100.00
9116;DHT22;4593;53.652;10.168;2023-11-21T03:34:26;6.60;100.00
9116;DHT22;4593;53.652;10.168;2023-11-21T03:36:52;6.50;100.00
9116;DHT22;4593;53.652;10.168;2023-11-21T03:39:19;6.50;100.00
9116;DHT22;4593;53.652;10.168;2023-11-21T03:41:45;6.50;100.00
9116;DHT22;4593;53.652;10.168;2023-11-21T03:44:10;6.60;100.00
9116;DHT22;4593;53.652;10.168;2023-11-21T03:46:36;6.60;100.00
9116;DHT22;4593;53.652;10.168;2023-11-21T03:49:01;6.70;100.00
9116;DHT22;4593;53.652;10.168;2023-11-21T03:51:27;6.60;100.00
9116;DHT22;4593;53.652;10.168;2023-11-21T03:53:53;6.60;100.00
9116;DHT22;4593;53.652;10.168;2023-11-21T03:56:19;6.50;100.00
9116;DHT22;4593;53.652;10.168;2023-11-21T03:58:47;6.60;100.00
9116;DHT22;4593;53.652;10.168;2023-11-21T04:01:22;6.60;100.00
9116;DHT22;4593;53.652;10.168;2023-11-21T04:03:48;6.50;100.00
9116;DHT22;4593;53.652;10.168;2023-11-21T04:06:15;6.60;100.00
9116;DHT22;4593;53.652;10.168;2023-11-21T04:08:40;6.60;100.00
9116;DHT22;4593;53.652;10.168;2023-11-21T04:11:06;6.70;100.00
9116;DHT22;4593;53.652;10.168;2023-11-21T04:13:31;6.70;100.00
9116;DHT22;4593;53.652;10.168;2023-11-21T04:15:57;6.80;100.00
9116;DHT22;4593;53.652;10.168;2023-11-21T04:18:22;6.80;100.00
9116;DHT22;4593;53.652;10.168;2023-11-21T04:20:51;6.80;100.00
9116;DHT22;4593;53.652;10.168;2023-11-21T04:23:16;6.80;100.00
9116;DHT22;4593;53.652;10.168;2023-11-21T04:25:42;6.80;100.00
9116;DHT22;4593;53.652;10.168;2023-11-21T04:28:08;6.80;100.00
9116;DHT22;4593;53.652;10.168;2023-11-21T04:30:34;6.80;100.00
9116;DHT22;4593;53.652;10.168;2023-11-21T04:32:59;6.80;100.00
9116;DHT22;4593;53.652;10.168;2023-11-21T04:35:25;6.80;100.00
9116;DHT22;4593;53.652;10.168;2023-11-21T04:37:50;6.80;100.00
9116;DHT22;4593;53.652;10.168;2023-11-21T04:40:16;6.80;100.00
9116;DHT22;4593;53.652;10.168;2023-11-21T04:42:42;6.70;100.00
9116;DHT22;4593;53.652;10.168;2023-11-21T04:45:08;6.80;100.00
9116;DHT22;4593;53.652;10.168;2023-11-21T04:47:35;6.80;100.00
9116;DHT22;4593;53.652;10.168;2023-11-21T04:50:02;6.70;100.00
9116;DHT22;4593;53.652;10.168;2023-11-21T04:52:28;6.80;100.00
9116;DHT22;4593;53.652;10.168;2023-11-21T04:54:54;6.70;100.00
9116;DHT22;4593;53.652;10.168;2023-11-21T04:57:21;6.70;100.00
9116;DHT22;4593;53.652;10.168;2023-11-21T04:59:48;6.70;100.00
9116;DHT22;4593;53.652;10.168;2023-11-21T05:02:14;6.70;100.00
9116;DHT22;4593;53.652;10.168;2023-11-21T05:04:39;6.70;100.00
9116;DHT22;4593;53.652;10.168;2023-11-21T05:07:05;6.70;100.00
9116;DHT22;4593;53.652;10.168;2023-11-21T05:09:31;6.80;100.00
9116;DHT22;4593;53.652;10.168;2023-11-21T05:11:58;6.80;100.00
9116;DHT22;4593;53.652;10.168;2023-11-21T05:14:23;6.90;100.00
9116;DHT22;4593;53.652;10.168;2023-11-21T05:16:49;6.80;100.00
9116;DHT22;4593;53.652;10.168;2023-11-21T05:19:16;6.80;100.00
9116;DHT22;4593;53.652;10.168;2023-11-21T05:21:42;6.90;100.00
9116;DHT22;4593;53.652;10.168;2023-11-21T05:24:07;6.80;100.00
9116;DHT22;4593;53.652;10.168;2023-11-21T05:26:33;6.80;100.00
9116;DHT22;4593;53.652;10.168;2023-11-21T05:28:59;6.80;100.00
9116;DHT22;4593;53.652;10.168;2023-11-21T05:31:24;6.80;100.00
9116;DHT22;4593;53.652;10.168;2023-11-21T05:33:50;6.80;100.00
9116;DHT22;4593;53.652;10.168;2023-11-21T05:36:15;6.80;100.00
9116;DHT22;4593;53.652;10.168;2023-11-21T05:38:41;6.80;100.00
9116;DHT22;4593;53.652;10.168;2023-11-21T05:41:07;6.80;100.00
9116;DHT22;4593;53.652;10.168;2023-11-21T05:43:33;6.80;100.00
9116;DHT22;4593;53.652;10.168;2023-11-21T05:46:01;6.80;100.00
9116;DHT22;4593;53.652;10.168;2023-11-21T05:48:26;6.80;100.00
9116;DHT22;4593;53.652;10.168;2023-11-21T05:50:52;6.80;100.00
9116;DHT22;4593;53.652;10.168;2023-11-21T05:53:18;6.80;100.00
9116;DHT22;4593;53.652;10.168;2023-11-21T05:55:44;6.80;100.00
9116;DHT22;4593;53.652;10.168;2023-11-21T05:58:09;6.80;100.00
9116;DHT22;4593;53.652;10.168;2023-11-21T06:00:35;6.80;100.00
9116;DHT22;4593;53.652;10.168;2023-11-21T06:03:01;6.80;100.00
9116;DHT22;4593;53.652;10.168;2023-11-21T06:05:27;6.80;100.00
9116;DHT22;4593;53.652;10.168;2023-11-21T06:07:54;6.80;100.00
9116;DHT22;4593;53.652;10.168;2023-11-21T06:10:21;6.80;100.00
9116;DHT22;4593;53.652;10.168;2023-11-21T06:12:47;6.90;100.00
9116;DHT22;4593;53.652;10.168;2023-11-21T06:15:12;6.90;100.00
9116;DHT22;4593;53.652;10.168;2023-11-21T06:17:42;6.70;100.00
9116;DHT22;4593;53.652;10.168;2023-11-21T06:20:09;6.70;100.00
9116;DHT22;4593;53.652;10.168;2023-11-21T06:22:44;6.70;100.00
9116;DHT22;4593;53.652;10.168;2023-11-21T06:25:11;6.80;100.00
9116;DHT22;4593;53.652;10.168;2023-11-21T06:27:40;6.80;100.00
9116;DHT22;4593;53.652;10.168;2023-11-21T06:30:06;6.80;100.00
9116;DHT22;4593;53.652;10.168;2023-11-21T06:32:34;6.80;100.00
9116;DHT22;4593;53.652;10.168;2023-11-21T06:35:00;6.90;100.00
9116;DHT22;4593;53.652;10.168;2023-11-21T06:37:27;6.90;100.00
9116;DHT22;4593;53.652;10.168;2023-11-21T06:39:53;6.80;100.00
9116;DHT22;4593;53.652;10.168;2023-11-21T06:42:19;6.90;100.00
9116;DHT22;4593;53.652;10.168;2023-11-21T06:44:45;6.80;100.00
9116;DHT22;4593;53.652;10.168;2023-11-21T06:47:11;6.80;100.00
9116;DHT22;4593;53.652;10.168;2023-11-21T06:49:37;6.80;100.00
9116;DHT22;4593;53.652;10.168;2023-11-21T06:52:04;6.90;100.00
9116;DHT22;4593;53.652;10.168;2023-11-21T06:54:31;6.80;100.00
9116;DHT22;4593;53.652;10.168;2023-11-21T06:56:58;6.80;100.00
9116;DHT22;4593;53.652;10.168;2023-11-21T06:59:23;6.80;100.00
9116;DHT22;4593;53.652;10.168;2023-11-21T07:01:50;6.80;100.00
9116;DHT22;4593;53.652;10.168;2023-11-21T07:04:15;6.80;100.00
9116;DHT22;4593;53.652;10.168;2023-11-21T07:06:42;6.70;100.00
9116;DHT22;4593;53.652;10.168;2023-11-21T07:09:09;6.60;100.00
9116;DHT22;4593;53.652;10.168;2023-11-21T07:11:37;6.60;100.00
9116;DHT22;4593;53.652;10.168;2023-11-21T07:14:06;6.60;100.00
9116;DHT22;4593;53.652;10.168;2023-11-21T07:16:35;6.70;100.00
9116;DHT22;4593;53.652;10.168;2023-11-21T07:19:03;6.60;100.00
9116;DHT22;4593;53.652;10.168;2023-11-21T07:21:35;6.60;100.00
9116;DHT22;4593;53.652;10.168;2023-11-21T07:24:04;6.70;100.00
9116;DHT22;4593;53.652;10.168;2023-11-21T07:26:31;6.70;100.00
9116;DHT22;4593;53.652;10.168;2023-11-21T07:28:57;6.80;100.00
9116;DHT22;4593;53.652;10.168;2023-11-21T07:31:23;6.80;100.00
9116;DHT22;4593;53.652;10.168;2023-11-21T07:33:49;6.80;99.80
9116;DHT22;4593;53.652;10.168;2023-11-21T07:36:16;6.70;100.00
9116;DHT22;4593;53.652;10.168;2023-11-21T07:38:44;6.70;99.70
9116;DHT22;4593;53.652;10.168;2023-11-21T07:41:10;6.60;99.60
9116;DHT22;4593;53.652;10.168;2023-11-21T07:43:37;6.70;100.00
9116;DHT22;4593;53.652;10.168;2023-11-21T07:46:03;6.80;100.00
9116;DHT22;4593;53.652;10.168;2023-11-21T07:48:32;6.80;99.40
9116;DHT22;4593;53.652;10.168;2023-11-21T07:50:58;6.80;99.50
9116;DHT22;4593;53.652;10.168;2023-11-21T07:53:27;6.70;98.60
9116;DHT22;4593;53.652;10.168;2023-11-21T07:55:58;6.80;99.20
9116;DHT22;4593;53.652;10.168;2023-11-21T07:58:24;6.80;98.70
9116;DHT22;4593;53.652;10.168;2023-11-21T08:00:50;6.80;98.40
9116;DHT22;4593;53.652;10.168;2023-11-21T08:03:16;6.80;98.00
9116;DHT22;4593;53.652;10.168;2023-11-21T08:05:42;6.80;97.50
9116;DHT22;4593;53.652;10.168;2023-11-21T08:08:08;6.80;97.30
9116;DHT22;4593;53.652;10.168;2023-11-21T08:10:34;7.00;97.40
9116;DHT22;4593;53.652;10.168;2023-11-21T08:13:01;7.10;97.20
9116;DHT22;4593;53.652;10.168;2023-11-21T08:15:27;7.10;96.00
9116;DHT22;4593;53.652;10.168;2023-11-21T08:17:53;7.20;96.50
9116;DHT22;4593;53.652;10.168;2023-11-21T08:20:19;7.20;95.60
9116;DHT22;4593;53.652;10.168;2023-11-21T08:22:45;7.10;95.80
9116;DHT22;4593;53.652;10.168;2023-11-21T08:25:13;7.10;96.20
9116;DHT22;4593;53.652;10.168;2023-11-21T08:27:38;7.10;95.90
9116;DHT22;4593;53.652;10.168;2023-11-21T08:30:04;7.10;96.10
9116;DHT22;4593;53.652;10.168;2023-11-21T08:32:30;7.00;96.70
9116;DHT22;4593;53.652;10.168;2023-11-21T08:34:58;7.10;96.90
9116;DHT22;4593;53.652;10.168;2023-11-21T08:37:24;7.00;96.40
9116;DHT22;4593;53.652;10.168;2023-11-21T08:39:53;6.90;97.40
9116;DHT22;4593;53.652;10.168;2023-11-21T08:42:19;6.80;97.60
9116;DHT22;4593;53.652;10.168;2023-11-21T08:44:45;6.60;98.80
9116;DHT22;4593;53.652;10.168;2023-11-21T08:47:11;6.60;100.00
9116;DHT22;4593;53.652;10.168;2023-11-21T08:49:37;6.60;100.00
9116;DHT22;4593;53.652;10.168;2023-11-21T08:52:04;6.70;100.00
9116;DHT22;4593;53.652;10.168;2023-11-21T08:54:31;6.90;100.00
9116;DHT22;4593;53.652;10.168;2023-11-21T08:56:56;6.80;100.00
9116;DHT22;4593;53.652;10.168;2023-11-21T08:59:24;6.90;100.00
9116;DHT22;4593;53.652;10.168;2023-11-21T09:01:50;7.00;99.80
9116;DHT22;4593;53.652;10.168;2023-11-21T09:04:16;6.90;100.00
9116;DHT22;4593;53.652;10.168;2023-11-21T09:06:42;7.00;100.00
9116;DHT22;4593;53.652;10.168;2023-11-21T09:09:07;6.80;100.00
9116;DHT22;4593;53.652;10.168;2023-11-21T09:11:35;6.80;100.00
9116;DHT22;4593;53.652;10.168;2023-11-21T09:14:02;6.80;100.00
9116;DHT22;4593;53.652;10.168;2023-11-21T09:16:29;6.90;100.00
9116;DHT22;4593;53.652;10.168;2023-11-21T09:18:55;7.10;100.00
9116;DHT22;4593;53.652;10.168;2023-11-21T09:21:21;7.30;100.00
9116;DHT22;4593;53.652;10.168;2023-11-21T09:23:47;7.20;100.00
9116;DHT22;4593;53.652;10.168;2023-11-21T09:26:13;7.20;100.00
9116;DHT22;4593;53.652;10.168;2023-11-21T09:28:41;7.20;100.00
9116;DHT22;4593;53.652;10.168;2023-11-21T09:31:11;7.30;100.00
9116;DHT22;4593;53.652;10.168;2023-11-21T09:33:37;7.10;100.00
9116;DHT22;4593;53.652;10.168;2023-11-21T09:36:04;6.90;100.00
9116;DHT22;4593;53.652;10.168;2023-11-21T09:38:30;6.80;100.00
9116;DHT22;4593;53.652;10.168;2023-11-21T09:40:56;6.80;100.00
9116;DHT22;4593;53.652;10.168;2023-11-21T09:43:25;6.80;100.00
9116;DHT22;4593;53.652;10.168;2023-11-21T09:46:00;6.70;100.00
9116;DHT22;4593;53.652;10.168;2023-11-21T09:48:26;6.90;100.00
9116;DHT22;4593;53.652;10.168;2023-11-21T09:50:53;7.10;100.00
9116;DHT22;4593;53.652;10.168;2023-11-21T09:53:21;7.10;100.00
9116;DHT22;4593;53.652;10.168;2023-11-21T09:55:48;6.80;100.00
9116;DHT22;4593;53.652;10.168;2023-11-21T09:58:16;6.80;100.00
9116;DHT22;4593;53.652;10.168;2023-11-21T10:00:46;6.80;100.00
9116;DHT22;4593;53.652;10.168;2023-11-21T10:03:12;6.90;100.00
9116;DHT22;4593;53.652;10.168;2023-11-21T10:05:39;6.80;100.00
9116;DHT22;4593;53.652;10.168;2023-11-21T10:08:10;6.80;100.00
9116;DHT22;4593;53.652;10.168;2023-11-21T10:10:37;6.80;100.00
9116;DHT22;4593;53.652;10.168;2023-11-21T10:13:05;6.70;99.70
9116;DHT22;4593;53.652;10.168;2023-11-21T10:15:33;6.90;100.00
9116;DHT22;4593;53.652;10.168;2023-11-21T10:18:05;7.10;99.60
9116;DHT22;4593;53.652;10.168;2023-11-21T10:20:32;7.10;98.90
9116;DHT22;4593;53.652;10.168;2023-11-21T10:23:03;7.20;98.40
9116;DHT22;4593;53.652;10.168;2023-11-21T10:25:30;7.30;97.50
9116;DHT22;4593;53.652;10.168;2023-11-21T10:28:01;7.50;96.80
9116;DHT22;4593;53.652;10.168;2023-11-21T10:30:36;7.60;96.40
9116;DHT22;4593;53.652;10.168;2023-11-21T10:33:07;7.20;95.90
9116;DHT22;4593;53.652;10.168;2023-11-21T10:38:08;6.80;97.60
9116;DHT22;4593;53.652;10.168;2023-11-21T10:40:42;6.80;98.00
9116;DHT22;4593;53.652;10.168;2023-11-21T10:43:11;6.80;98.10
9116;DHT22;4593;53.652;10.168;2023-11-21T10:45:41;6.90;98.00
9116;DHT22;4593;53.652;10.168;2023-11-21T10:48:12;7.00;96.20
9116;DHT22;4593;53.652;10.168;2023-11-21T10:50:40;7.00;96.30
9116;DHT22;4593;53.652;10.168;2023-11-21T10:53:06;7.00;96.40
9116;DHT22;4593;53.652;10.168;2023-11-21T10:55:33;7.10;95.40
9116;DHT22;4593;53.652;10.168;2023-11-21T10:58:01;7.00;95.50
9116;DHT22;4593;53.652;10.168;2023-11-21T11:00:31;7.00;95.50
9116;DHT22;4593;53.652;10.168;2023-11-21T11:02:58;6.90;94.90
9116;DHT22;4593;53.652;10.168;2023-11-21T11:05:25;6.70;95.40
9116;DHT22;4593;53.652;10.168;2023-11-21T11:08:07;6.60;95.20
9116;DHT22;4593;53.652;10.168;2023-11-21T11:10:33;6.80;95.90
9116;DHT22;4593;53.652;10.168;2023-11-21T11:12:59;7.00;95.40
9116;DHT22;4593;53.652;10.168;2023-11-21T11:15:26;7.10;94.80
9116;DHT22;4593;53.652;10.168;2023-11-21T11:17:53;7.20;94.50
9116;DHT22;4593;53.652;10.168;2023-11-21T11:20:33;6.90;93.40
9116;DHT22;4593;53.652;10.168;2023-11-21T11:28:56;6.90;95.50
9116;DHT22;4593;53.652;10.168;2023-11-21T11:34:22;6.90;94.90
9116;DHT22;4593;53.652;10.168;2023-11-21T11:36:56;7.00;95.20
9116;DHT22;4593;53.652;10.168;2023-11-21T11:39:39;7.00;94.20
9116;DHT22;4593;53.652;10.168;2023-11-21T11:42:08;6.80;93.90
9116;DHT22;4593;53.652;10.168;2023-11-21T11:47:15;6.80;94.70
9116;DHT22;4593;53.652;10.168;2023-11-21T11:50:08;6.90;94.70
9116;DHT22;4593;53.652;10.168;2023-11-21T11:52:50;6.90;93.30
9116;DHT22;4593;53.652;10.168;2023-11-21T11:55:18;6.80;93.90
9116;DHT22;4593;53.652;10.168;2023-11-21T11:57:46;6.90;94.30
9116;DHT22;4593;53.652;10.168;2023-11-21T12:00:19;6.80;94.30
9116;DHT22;4593;53.652;10.168;2023-11-21T12:02:55;6.60;94.50
9116;DHT22;4593;53.652;10.168;2023-11-21T12:05:40;6.70;95.50
9116;DHT22;4593;53.652;10.168;2023-11-21T12:08:08;6.80;95.30
9116;DHT22;4593;53.652;10.168;2023-11-21T12:10:35;6.90;94.90
9116;DHT22;4593;53.652;10.168;2023-11-21T12:13:06;7.00;94.60
9116;DHT22;4593;53.652;10.168;2023-11-21T12:15:33;6.80;94.30
9116;DHT22;4593;53.652;10.168;2023-11-21T12:18:00;6.70;93.90
9116;DHT22;4593;53.652;10.168;2023-11-21T12:20:27;6.80;93.10
9116;DHT22;4593;53.652;10.168;2023-11-21T12:22:58;6.60;93.10
9116;DHT22;4593;53.652;10.168;2023-11-21T12:25:29;6.50;94.80
9116;DHT22;4593;53.652;10.168;2023-11-21T12:27:57;6.50;95.30
9116;DHT22;4593;53.652;10.168;2023-11-21T12:30:25;6.60;95.50
9116;DHT22;4593;53.652;10.168;2023-11-21T12:32:54;6.60;96.10
9116;DHT22;4593;53.652;10.168;2023-11-21T12:35:27;6.50;96.20
9116;DHT22;4593;53.652;10.168;2023-11-21T12:37:55;6.40;97.20
9116;DHT22;4593;53.652;10.168;2023-11-21T12:40:22;6.60;97.20
9116;DHT22;4593;53.652;10.168;2023-11-21T12:42:53;6.40;98.10
9116;DHT22;4593;53.652;10.168;2023-11-21T12:45:25;6.60;98.30
9116;DHT22;4593;53.652;10.168;2023-11-21T12:47:59;6.40;98.40
9116;DHT22;4593;53.652;10.168;2023-11-21T12:50:27;6.40;98.70
9116;DHT22;4593;53.652;10.168;2023-11-21T12:53:01;6.30;99.90
9116;DHT22;4593;53.652;10.168;2023-11-21T12:55:33;6.40;99.80
9116;DHT22;4593;53.652;10.168;2023-11-21T12:58:04;6.30;100.00
9116;DHT22;4593;53.652;10.168;2023-11-21T13:00:48;6.20;100.00
9116;DHT22;4593;53.652;10.168;2023-11-21T13:03:16;6.20;100.00
9116;DHT22;4593;53.652;10.168;2023-11-21T13:05:45;6.10;100.00
9116;DHT22;4593;53.652;10.168;2023-11-21T13:08:12;6.00;100.00
9116;DHT22;4593;53.652;10.168;2023-11-21T13:10:43;6.00;100.00
9116;DHT22;4593;53.652;10.168;2023-11-21T13:13:12;6.00;100.00
9116;DHT22;4593;53.652;10.168;2023-11-21T13:15:50;5.80;100.00
9116;DHT22;4593;53.652;10.168;2023-11-21T13:18:16;5.90;100.00
9116;DHT22;4593;53.652;10.168;2023-11-21T13:20:42;6.00;100.00
9116;DHT22;4593;53.652;10.168;2023-11-21T13:23:10;6.00;100.00
9116;DHT22;4593;53.652;10.168;2023-11-21T13:25:38;6.00;100.00
9116;DHT22;4593;53.652;10.168;2023-11-21T13:28:06;6.00;100.00
9116;DHT22;4593;53.652;10.168;2023-11-21T13:30:32;6.00;100.00
9116;DHT22;4593;53.652;10.168;2023-11-21T13:33:04;6.00;100.00
9116;DHT22;4593;53.652;10.168;2023-11-21T13:35:39;5.90;100.00
9116;DHT22;4593;53.652;10.168;2023-11-21T13:38:13;5.90;100.00
9116;DHT22;4593;53.652;10.168;2023-11-21T13:40:41;6.00;100.00
9116;DHT22;4593;53.652;10.168;2023-11-21T13:43:12;6.10;100.00
9116;DHT22;4593;53.652;10.168;2023-11-21T13:45:43;6.20;100.00
9116;DHT22;4593;53.652;10.168;2023-11-21T13:48:09;6.30;99.50
9116;DHT22;4593;53.652;10.168;2023-11-21T13:50:42;6.30;99.60
9116;DHT22;4593;53.652;10.168;2023-11-21T13:53:21;6.30;98.70
9116;DHT22;4593;53.652;10.168;2023-11-21T13:55:51;6.20;99.00
9116;DHT22;4593;53.652;10.168;2023-11-21T13:58:20;6.00;98.70
9116;DHT22;4593;53.652;10.168;2023-11-21T14:00:53;5.90;98.90
9116;DHT22;4593;53.652;10.168;2023-11-21T14:03:23;5.90;99.70
9116;DHT22;4593;53.652;10.168;2023-11-21T14:05:57;5.80;98.70
9116;DHT22;4593;53.652;10.168;2023-11-21T14:08:25;5.80;98.30
9116;DHT22;4593;53.652;10.168;2023-11-21T14:10:54;5.70;98.00
9116;DHT22;4593;53.652;10.168;2023-11-21T14:13:25;5.70;98.10
9116;DHT22;4593;53.652;10.168;2023-11-21T14:15:51;5.70;97.60
9116;DHT22;4593;53.652;10.168;2023-11-21T14:18:23;5.70;97.10
9116;DHT22;4593;53.652;10.168;2023-11-21T14:20:56;5.60;97.50
9116;DHT22;4593;53.652;10.168;2023-11-21T14:23:22;5.60;97.60
9116;DHT22;4593;53.652;10.168;2023-11-21T14:25:49;5.60;97.50
9116;DHT22;4593;53.652;10.168;2023-11-21T14:28:16;5.70;96.50
9116;DHT22;4593;53.652;10.168;2023-11-21T14:30:42;5.70;96.40
9116;DHT22;4593;53.652;10.168;2023-11-21T14:33:08;5.80;95.90
9116;DHT22;4593;53.652;10.168;2023-11-21T14:35:36;5.90;95.60
9116;DHT22;4593;53.652;10.168;2023-11-21T14:38:02;5.90;94.90
9116;DHT22;4593;53.652;10.168;2023-11-21T14:40:31;5.90;95.20
9116;DHT22;4593;53.652;10.168;2023-11-21T14:43:08;5.90;94.80
9116;DHT22;4593;53.652;10.168;2023-11-21T14:45:33;5.90;95.20
9116;DHT22;4593;53.652;10.168;2023-11-21T14:48:00;6.00;95.70
9116;DHT22;4593;53.652;10.168;2023-11-21T14:50:51;5.90;95.50
9116;DHT22;4593;53.652;10.168;2023-11-21T14:53:17;5.90;96.10
9116;DHT22;4593;53.652;10.168;2023-11-21T14:56:03;6.00;96.00
9116;DHT22;4593;53.652;10.168;2023-11-21T14:58:29;6.00;95.70
9116;DHT22;4593;53.652;10.168;2023-11-21T15:00:56;6.00;96.00
9116;DHT22;4593;53.652;10.168;2023-11-21T15:03:26;6.00;96.60
9116;DHT22;4593;53.652;10.168;2023-11-21T15:05:59;5.80;98.60
9116;DHT22;4593;53.652;10.168;2023-11-21T15:08:37;5.60;100.00
9116;DHT22;4593;53.652;10.168;2023-11-21T15:11:03;5.40;100.00
9116;DHT22;4593;53.652;10.168;2023-11-21T15:13:32;5.20;100.00
9116;DHT22;4593;53.652;10.168;2023-11-21T15:15:58;5.10;100.00
9116;DHT22;4593;53.652;10.168;2023-11-21T15:18:33;5.20;100.00
9116;DHT22;4593;53.652;10.168;2023-11-21T15:20:59;5.20;100.00
9116;DHT22;4593;53.652;10.168;2023-11-21T15:23:25;5.10;100.00
9116;DHT22;4593;53.652;10.168;2023-11-21T15:25:53;5.00;100.00
9116;DHT22;4593;53.652;10.168;2023-11-21T15:28:19;5.00;100.00
9116;DHT22;4593;53.652;10.168;2023-11-21T15:30:45;5.10;100.00
9116;DHT22;4593;53.652;10.168;2023-11-21T15:33:13;5.10;100.00
9116;DHT22;4593;53.652;10.168;2023-11-21T15:35:39;5.20;100.00
9116;DHT22;4593;53.652;10.168;2023-11-21T15:38:06;5.20;100.00
9116;DHT22;4593;53.652;10.168;2023-11-21T15:40:33;5.30;100.00
9116;DHT22;4593;53.652;10.168;2023-11-21T15:42:59;5.20;100.00
9116;DHT22;4593;53.652;10.168;2023-11-21T15:45:25;5.20;100.00
9116;DHT22;4593;53.652;10.168;2023-11-21T15:47:51;5.20;100.00
9116;DHT22;4593;53.652;10.168;2023-11-21T15:50:19;5.20;100.00
9116;DHT22;4593;53.652;10.168;2023-11-21T15:52:45;5.20;100.00
9116;DHT22;4593;53.652;10.168;2023-11-21T15:55:12;5.20;100.00
9116;DHT22;4593;53.652;10.168;2023-11-21T15:57:38;5.20;100.00
9116;DHT22;4593;53.652;10.168;2023-11-21T16:00:04;5.20;100.00
9116;DHT22;4593;53.652;10.168;2023-11-21T16:02:36;5.20;100.00
9116;DHT22;4593;53.652;10.168;2023-11-21T16:05:04;5.20;100.00
9116;DHT22;4593;53.652;10.168;2023-11-21T16:07:30;5.30;100.00